Time;durP1;ratioP1;P1;durP2;ratioP2;P2;SDS_P1;SDS_P2;PMS_P1;PMS_P2;Temp;Humidity;BMP_temperature;BMP_pressure;BME280_temperature;BME280_humidity;BME280_pressure;Samples;Min_cycle;Max_cycle;Signal;HPM_P1;HPM_P2
2022/10/06 00:01:21;;;;;;;6.78;1.23;;;13.60;99.90;;;;;;5048595;28;20077;-68
2022/10/06 00:03:47;;;;;;;7.00;1.17;;;13.60;99.90;;;;;;5046832;28;20056;-68
2022/10/06 00:06:16;;;;;;;9.98;1.58;;;13.60;99.90;;;;;;5046975;28;20053;-68
2022/10/06 00:08:42;;;;;;;7.20;1.25;;;13.60;99.90;;;;;;5046430;28;20080;-68
2022/10/06 00:11:11;;;;;;;7.55;1.17;;;13.60;99.90;;;;;;5046221;28;20053;-68
2022/10/06 00:13:37;;;;;;;6.60;1.52;;;13.60;99.90;;;;;;5046361;28;20087;-68
2022/10/06 00:16:11;;;;;;;5.15;1.77;;;13.60;99.90;;;;;;5048436;28;20053;-68
2022/10/06 00:18:38;;;;;;;6.18;1.58;;;13.50;99.90;;;;;;5037848;28;20056;-67
2022/10/06 00:21:04;;;;;;;3.70;1.20;;;13.40;99.90;;;;;;5045840;28;20050;-67
2022/10/06 00:23:29;;;;;;;6.40;1.77;;;13.50;99.90;;;;;;5047646;28;20080;-67
2022/10/06 00:25:56;;;;;;;4.55;1.30;;;13.50;99.90;;;;;;5046294;28;20049;-68
2022/10/06 00:28:22;;;;;;;7.00;1.42;;;13.40;99.90;;;;;;5047132;28;20156;-68
2022/10/06 00:30:49;;;;;;;5.15;1.20;;;13.40;99.90;;;;;;5045576;28;20056;-68
2022/10/06 00:33:16;;;;;;;5.88;1.60;;;13.40;99.90;;;;;;5045893;28;20053;-67
2022/10/06 00:35:42;;;;;;;3.90;1.08;;;13.40;99.90;;;;;;5045822;28;20092;-68
2022/10/06 00:38:13;;;;;;;7.15;1.33;;;13.40;99.90;;;;;;5046595;28;20056;-68
2022/10/06 00:40:47;;;;;;;5.43;1.33;;;13.40;99.90;;;;;;5045931;28;20051;-68
2022/10/06 00:43:38;;;;;;;6.82;1.42;;;13.30;99.90;;;;;;5046487;28;20053;-67
2022/10/06 00:46:05;;;;;;;5.40;1.75;;;13.20;99.90;;;;;;5046716;28;20076;-67
2022/10/06 00:48:31;;;;;;;6.28;1.58;;;13.20;99.90;;;;;;5045442;28;20052;-67
2022/10/06 00:50:58;;;;;;;9.23;1.50;;;13.20;99.90;;;;;;5045154;28;20053;-67
2022/10/06 00:53:28;;;;;;;2.85;1.08;;;13.30;99.90;;;;;;5056797;28;20080;-68
2022/10/06 00:55:54;;;;;;;5.88;1.70;;;13.20;99.90;;;;;;5046874;28;20087;-67
2022/10/06 00:58:20;;;;;;;8.55;1.67;;;13.10;99.90;;;;;;5046849;28;20525;-67
2022/10/06 01:00:52;;;;;;;5.88;1.42;;;13.20;99.90;;;;;;5013670;28;20071;-67
2022/10/06 01:03:26;;;;;;;9.80;1.58;;;13.10;99.90;;;;;;5044266;28;20048;-68
2022/10/06 01:05:54;;;;;;;8.07;1.60;;;13.10;99.90;;;;;;5045915;28;20104;-67
2022/10/06 01:08:21;;;;;;;4.90;1.40;;;13.20;99.90;;;;;;5047645;28;20045;-68
2022/10/06 01:10:47;;;;;;;5.97;1.63;;;13.10;99.90;;;;;;5046171;28;20045;-67
2022/10/06 01:13:14;;;;;;;6.57;1.35;;;13.20;99.90;;;;;;5047503;28;20079;-67
2022/10/06 01:15:50;;;;;;;8.77;1.75;;;13.20;99.90;;;;;;5047560;28;20064;-68
2022/10/06 01:18:19;;;;;;;9.65;1.90;;;13.20;99.90;;;;;;5026312;28;20061;-67
2022/10/06 01:20:50;;;;;;;8.07;2.13;;;13.30;99.90;;;;;;5042263;28;20037;-67
2022/10/06 01:23:16;;;;;;;6.05;1.27;;;13.10;99.90;;;;;;5044742;28;20477;-67
2022/10/06 01:25:43;;;;;;;7.53;1.50;;;13.10;99.90;;;;;;5045803;28;20284;-67
2022/10/06 01:28:11;;;;;;;4.00;1.02;;;13.10;99.90;;;;;;5045033;28;20045;-67
2022/10/06 01:30:44;;;;;;;12.30;1.77;;;13.10;99.90;;;;;;5044381;28;20079;-67
2022/10/06 01:33:10;;;;;;;6.53;1.25;;;13.00;99.90;;;;;;5046934;28;20044;-67
2022/10/06 01:35:36;;;;;;;6.90;1.80;;;12.90;99.90;;;;;;5045806;28;20045;-67
2022/10/06 01:38:02;;;;;;;10.35;2.03;;;12.90;99.90;;;;;;5044445;28;20088;-68
2022/10/06 01:40:29;;;;;;;8.23;1.75;;;12.90;99.90;;;;;;5044962;28;20053;-67
2022/10/06 01:42:55;;;;;;;11.45;1.92;;;12.90;99.90;;;;;;5032293;28;20052;-67
2022/10/06 01:45:21;;;;;;;7.53;1.52;;;12.80;99.90;;;;;;5048063;28;20053;-67
2022/10/06 01:47:47;;;;;;;7.03;1.50;;;12.80;99.90;;;;;;5044335;28;20042;-67
2022/10/06 01:50:13;;;;;;;9.90;1.83;;;12.80;99.90;;;;;;5043809;28;20053;-67
2022/10/06 01:52:39;;;;;;;11.57;2.75;;;12.80;99.90;;;;;;5046909;28;20045;-67
2022/10/06 01:55:05;;;;;;;9.55;1.65;;;12.70;99.90;;;;;;5046493;28;20064;-67
2022/10/06 01:57:31;;;;;;;7.60;1.60;;;12.70;99.90;;;;;;5047039;28;20444;-67
2022/10/06 01:59:57;;;;;;;5.75;1.60;;;12.70;99.90;;;;;;5044486;28;20124;-67
2022/10/06 02:02:23;;;;;;;11.18;1.67;;;12.70;99.90;;;;;;5043327;28;20049;-67
2022/10/06 02:04:48;;;;;;;8.50;2.15;;;12.60;99.90;;;;;;5045547;28;20056;-67
2022/10/06 02:07:14;;;;;;;12.32;2.17;;;12.60;99.90;;;;;;5045414;28;20053;-67
2022/10/06 02:09:40;;;;;;;6.70;1.40;;;12.60;99.90;;;;;;5046441;28;20045;-67
2022/10/06 02:12:05;;;;;;;9.70;1.75;;;12.60;99.90;;;;;;5044967;28;20044;-67
2022/10/06 02:14:33;;;;;;;9.43;1.40;;;12.50;99.90;;;;;;5044769;28;20042;-67
2022/10/06 02:16:59;;;;;;;10.10;2.35;;;12.60;99.90;;;;;;5042582;28;20084;-67
2022/10/06 02:19:25;;;;;;;9.93;1.85;;;12.60;99.90;;;;;;5044536;28;20049;-67
2022/10/06 02:21:52;;;;;;;7.32;1.08;;;12.50;99.90;;;;;;5042519;28;20053;-67
2022/10/06 02:24:17;;;;;;;8.30;1.50;;;12.50;99.90;;;;;;5023496;28;20058;-67
2022/10/06 02:26:43;;;;;;;8.40;1.45;;;12.50;99.90;;;;;;5020112;28;20144;-67
2022/10/06 02:29:09;;;;;;;11.52;1.70;;;12.40;99.90;;;;;;5036700;28;20064;-68
2022/10/06 02:31:34;;;;;;;8.00;1.67;;;12.30;99.90;;;;;;5033061;28;20046;-67
2022/10/06 02:34:01;;;;;;;6.55;1.75;;;12.40;99.90;;;;;;5044725;28;20055;-68
2022/10/06 02:36:26;;;;;;;9.10;2.00;;;12.40;99.90;;;;;;5043834;28;20048;-67
2022/10/06 02:38:52;;;;;;;8.60;1.75;;;12.40;99.90;;;;;;5046955;28;20046;-68
2022/10/06 02:41:18;;;;;;;5.80;1.25;;;12.30;99.90;;;;;;5044218;28;20042;-68
2022/10/06 02:43:43;;;;;;;10.25;1.60;;;12.20;99.90;;;;;;5051751;28;20068;-67
2022/10/06 02:46:13;;;;;;;9.20;1.40;;;12.30;99.90;;;;;;5044631;28;20041;-67
2022/10/06 02:48:42;;;;;;;4.93;1.23;;;12.30;99.90;;;;;;5037662;28;20456;-67
2022/10/06 02:51:14;;;;;;;11.45;2.00;;;12.20;99.90;;;;;;5034852;28;20303;-67
2022/10/06 02:53:42;;;;;;;9.98;2.13;;;12.30;99.90;;;;;;5044299;28;20037;-68
2022/10/06 02:56:11;;;;;;;7.60;1.80;;;12.20;99.90;;;;;;5056763;28;20513;-68
2022/10/06 02:58:38;;;;;;;8.13;1.67;;;12.20;99.90;;;;;;5044425;28;20057;-68
2022/10/06 03:01:10;;;;;;;9.23;1.85;;;12.20;99.90;;;;;;5043578;28;20068;-67
2022/10/06 03:03:36;;;;;;;9.40;1.85;;;12.10;99.90;;;;;;5042685;28;20132;-67
2022/10/06 03:06:21;;;;;;;5.97;2.75;;;12.10;99.90;;;;;;5044393;28;20037;-67
2022/10/06 03:08:57;;;;;;;10.63;2.38;;;12.10;99.90;;;;;;5043132;28;20057;-67
2022/10/06 03:11:26;;;;;;;8.98;1.45;;;12.20;99.90;;;;;;5043009;28;20057;-67
2022/10/06 03:13:52;;;;;;;7.90;1.30;;;12.20;99.90;;;;;;5042588;28;20053;-68
2022/10/06 03:16:28;;;;;;;8.20;1.50;;;12.10;99.90;;;;;;5044489;28;20057;-68
2022/10/06 03:18:55;;;;;;;12.27;1.95;;;12.10;99.90;;;;;;5032710;28;20493;-68
2022/10/06 03:21:23;;;;;;;8.98;2.38;;;12.00;99.90;;;;;;5042962;28;20093;-68
2022/10/06 03:23:51;;;;;;;10.65;1.60;;;12.00;99.90;;;;;;5043839;28;20406;-67
2022/10/06 03:26:19;;;;;;;12.35;1.65;;;12.00;99.90;;;;;;5042914;28;20075;-67
2022/10/06 03:28:45;;;;;;;8.13;1.73;;;12.00;99.90;;;;;;5043602;28;20045;-67
2022/10/06 03:31:12;;;;;;;11.55;1.73;;;11.90;99.90;;;;;;5043046;28;20045;-67
2022/10/06 03:33:37;;;;;;;8.57;1.40;;;11.90;99.90;;;;;;5042413;28;20049;-68
2022/10/06 03:36:10;;;;;;;7.32;1.38;;;11.90;99.90;;;;;;5043907;28;20363;-67
2022/10/06 03:38:37;;;;;;;11.68;1.40;;;11.80;99.90;;;;;;5047897;28;20112;-68
2022/10/06 03:41:29;;;;;;;9.98;1.60;;;11.80;99.90;;;;;;5053135;28;20108;-68
2022/10/06 03:43:57;;;;;;;12.63;2.53;;;11.90;99.90;;;;;;5042785;28;20096;-67
2022/10/06 03:46:25;;;;;;;12.55;2.05;;;11.80;99.90;;;;;;5026895;28;20091;-67
2022/10/06 03:48:52;;;;;;;13.38;1.98;;;11.80;99.90;;;;;;5042885;28;20049;-68
2022/10/06 03:51:26;;;;;;;7.40;1.50;;;11.80;99.90;;;;;;5043447;28;20060;-67
2022/10/06 03:53:52;;;;;;;7.20;1.70;;;11.80;99.90;;;;;;5030322;28;20048;-68
2022/10/06 03:56:24;;;;;;;7.03;1.65;;;11.80;99.90;;;;;;5042714;28;20401;-68
2022/10/06 03:58:55;;;;;;;9.68;1.63;;;11.80;99.90;;;;;;5042703;28;20157;-68
2022/10/06 04:01:33;;;;;;;10.23;1.65;;;11.80;99.90;;;;;;5027124;28;20398;-68
2022/10/06 04:04:00;;;;;;;6.20;1.63;;;11.80;99.90;;;;;;5044488;28;20083;-68
2022/10/06 04:06:27;;;;;;;11.93;1.92;;;11.90;99.90;;;;;;5043451;28;20048;-68
2022/10/06 04:08:54;;;;;;;10.52;1.80;;;11.80;99.90;;;;;;5042613;28;20064;-68
2022/10/06 04:11:26;;;;;;;9.50;2.33;;;11.80;99.90;;;;;;5042545;28;20087;-68
2022/10/06 04:13:56;;;;;;;8.82;1.33;;;11.80;99.90;;;;;;5044223;28;20077;-68
2022/10/06 04:16:25;;;;;;;11.98;1.77;;;11.80;99.90;;;;;;5043335;28;20105;-68
2022/10/06 04:18:56;;;;;;;8.77;1.95;;;11.70;99.90;;;;;;5042887;28;20101;-67
2022/10/06 04:21:23;;;;;;;8.90;1.70;;;11.70;99.90;;;;;;5044054;28;20461;-67
2022/10/06 04:23:51;;;;;;;11.05;1.75;;;11.60;99.90;;;;;;5043862;28;20052;-67
2022/10/06 04:26:19;;;;;;;8.85;1.52;;;11.60;99.90;;;;;;5043652;28;20413;-67
2022/10/06 04:28:45;;;;;;;11.60;2.30;;;11.60;99.90;;;;;;5042765;28;20053;-67
2022/10/06 04:31:33;;;;;;;10.07;2.05;;;11.60;99.90;;;;;;5042381;28;20033;-67
2022/10/06 04:34:00;;;;;;;10.70;1.70;;;11.60;99.90;;;;;;5043814;28;20494;-67
2022/10/06 04:36:39;;;;;;;10.18;2.17;;;11.60;99.90;;;;;;5028570;28;20042;-67
2022/10/06 04:39:07;;;;;;;12.20;1.80;;;11.50;99.90;;;;;;5004426;28;20054;-69
2022/10/06 04:41:35;;;;;;;12.48;2.10;;;11.50;99.90;;;;;;5038158;28;20229;-67
2022/10/06 04:44:02;;;;;;;10.52;2.08;;;11.50;99.90;;;;;;5046198;28;20049;-69
2022/10/06 04:46:28;;;;;;;9.57;1.60;;;11.50;99.90;;;;;;5028477;28;20045;-70
2022/10/06 04:48:54;;;;;;;8.93;1.70;;;11.50;99.90;;;;;;5031199;28;20034;-70
2022/10/06 04:51:22;;;;;;;8.68;1.65;;;11.40;99.90;;;;;;5036508;28;20042;-68
2022/10/06 04:53:48;;;;;;;5.40;1.60;;;11.40;99.90;;;;;;5038470;28;20042;-68
2022/10/06 04:56:17;;;;;;;12.68;3.25;;;11.40;99.90;;;;;;5036829;28;20050;-67
2022/10/06 04:58:45;;;;;;;9.68;2.15;;;11.30;99.90;;;;;;5035103;28;20128;-67
2022/10/06 05:01:26;;;;;;;9.35;1.52;;;11.30;99.90;;;;;;5035246;28;20076;-67
2022/10/06 05:03:57;;;;;;;9.82;1.70;;;11.40;99.90;;;;;;5035805;28;20045;-68
2022/10/06 05:06:24;;;;;;;13.65;2.30;;;11.30;99.90;;;;;;5035879;28;20577;-69
2022/10/06 05:08:53;;;;;;;9.52;1.90;;;11.30;99.90;;;;;;5044657;28;20053;-68
2022/10/06 05:11:20;;;;;;;16.77;1.88;;;11.30;99.90;;;;;;5046044;28;20046;-69
2022/10/06 05:13:46;;;;;;;9.43;1.60;;;11.20;99.90;;;;;;5045805;28;20052;-69
2022/10/06 05:16:15;;;;;;;10.60;1.88;;;11.30;99.90;;;;;;5044875;28;20115;-69
2022/10/06 05:18:41;;;;;;;9.68;1.52;;;11.20;99.90;;;;;;5041324;28;20053;-66
2022/10/06 05:21:11;;;;;;;9.93;1.60;;;11.20;99.90;;;;;;5044850;28;20048;-67
2022/10/06 05:23:39;;;;;;;13.82;2.40;;;11.20;99.90;;;;;;5044617;28;20072;-69
2022/10/06 05:26:06;;;;;;;7.57;1.45;;;11.20;99.90;;;;;;5044542;28;20109;-70
2022/10/06 05:28:33;;;;;;;9.30;1.85;;;11.20;99.90;;;;;;5042561;28;20053;-70
2022/10/06 05:31:01;;;;;;;14.18;2.03;;;11.10;99.90;;;;;;5037543;28;20092;-70
2022/10/06 05:33:29;;;;;;;14.13;2.20;;;11.10;99.90;;;;;;5043145;28;20088;-70
2022/10/06 05:35:57;;;;;;;8.88;1.50;;;11.00;99.90;;;;;;5027362;28;20452;-70
2022/10/06 05:38:23;;;;;;;10.57;2.97;;;11.10;99.90;;;;;;5016545;28;20054;-70
2022/10/06 05:40:50;;;;;;;6.10;1.58;;;11.10;99.90;;;;;;5044465;28;20046;-70
2022/10/06 05:43:17;;;;;;;12.10;1.98;;;11.00;99.90;;;;;;5039592;28;20077;-70
2022/10/06 05:45:57;;;;;;;8.90;1.90;;;11.00;99.90;;;;;;5023769;28;20746;-69
2022/10/06 05:48:23;;;;;;;12.77;1.85;;;10.90;99.90;;;;;;5031072;28;20069;-70
2022/10/06 05:51:09;;;;;;;14.05;2.10;;;10.90;99.90;;;;;;5043823;28;20045;-69
2022/10/06 05:53:36;;;;;;;10.27;2.55;;;10.90;99.90;;;;;;5042653;28;20059;-69
2022/10/06 05:56:14;;;;;;;13.45;1.95;;;10.80;99.90;;;;;;5037494;28;20666;-69
2022/10/06 05:58:41;;;;;;;12.52;2.50;;;10.80;99.90;;;;;;5044959;28;20060;-70
2022/10/06 06:01:26;;;;;;;10.38;2.45;;;10.80;99.90;;;;;;5027971;28;20068;-70
2022/10/06 06:03:55;;;;;;;9.85;2.13;;;10.80;99.90;;;;;;5040423;28;20045;-70
2022/10/06 06:06:26;;;;;;;12.18;1.92;;;10.90;99.90;;;;;;5044108;28;20053;-70
2022/10/06 06:09:01;;;;;;;12.95;1.77;;;10.80;99.90;;;;;;5042546;28;20053;-69
2022/10/06 06:11:30;;;;;;;10.30;2.42;;;10.80;99.90;;;;;;5043018;28;20049;-69
2022/10/06 06:14:00;;;;;;;11.50;1.90;;;10.80;99.90;;;;;;5026703;28;20131;-69
2022/10/06 06:16:29;;;;;;;9.35;2.08;;;10.80;99.90;;;;;;5057122;28;20049;-69
2022/10/06 06:18:56;;;;;;;14.38;2.28;;;10.70;99.90;;;;;;5055330;28;20092;-69
2022/10/06 06:21:22;;;;;;;9.05;1.65;;;10.70;99.90;;;;;;5026077;28;20103;-69
2022/10/06 06:23:48;;;;;;;12.15;2.22;;;10.70;99.90;;;;;;5014474;28;20065;-69
2022/10/06 06:26:25;;;;;;;8.00;2.33;;;10.80;99.90;;;;;;5042518;28;20049;-69
2022/10/06 06:28:53;;;;;;;10.70;1.85;;;10.80;99.90;;;;;;5035980;28;20183;-69
2022/10/06 06:31:28;;;;;;;11.60;2.08;;;10.70;99.90;;;;;;5040536;28;20053;-69
2022/10/06 06:33:56;;;;;;;13.75;2.50;;;10.70;99.90;;;;;;5035964;28;20099;-69
2022/10/06 06:36:39;;;;;;;9.32;2.00;;;10.80;99.90;;;;;;5039875;28;20042;-69
2022/10/06 06:39:07;;;;;;;8.93;1.63;;;10.90;99.90;;;;;;5018555;28;20099;-69
2022/10/06 06:41:38;;;;;;;9.23;2.05;;;10.90;99.90;;;;;;5037972;28;20381;-69
2022/10/06 06:44:06;;;;;;;13.80;2.35;;;11.00;99.90;;;;;;5030809;28;20155;-69
2022/10/06 06:46:33;;;;;;;13.02;2.17;;;11.00;99.90;;;;;;5048348;28;20128;-69
2022/10/06 06:49:03;;;;;;;13.32;2.22;;;11.00;99.90;;;;;;5030483;28;20368;-69
2022/10/06 06:51:39;;;;;;;7.57;1.73;;;11.00;99.90;;;;;;5027567;28;20049;-69
2022/10/06 06:54:05;;;;;;;12.70;2.00;;;11.00;99.90;;;;;;5019790;28;20095;-69
2022/10/06 06:56:33;;;;;;;8.10;1.73;;;11.10;99.90;;;;;;5038748;28;20195;-70
2022/10/06 06:59:00;;;;;;;10.15;1.85;;;11.10;99.90;;;;;;5030824;28;20092;-69
2022/10/06 07:01:27;;;;;;;16.23;2.30;;;11.10;99.90;;;;;;5019629;28;20056;-69
2022/10/06 07:03:59;;;;;;;7.53;2.10;;;11.20;99.90;;;;;;5013566;28;20499;-70
2022/10/06 07:06:27;;;;;;;14.20;2.13;;;11.20;99.90;;;;;;5036988;28;20245;-69
2022/10/06 07:08:53;;;;;;;11.02;1.67;;;11.30;99.90;;;;;;5029401;28;20107;-70
2022/10/06 07:11:37;;;;;;;9.82;2.15;;;11.30;99.90;;;;;;5037242;28;20056;-69
2022/10/06 07:14:06;;;;;;;17.65;2.20;;;11.40;99.90;;;;;;5030697;28;20052;-69
2022/10/06 07:25:10;;;;;;;8.65;1.63;;;11.60;99.90;;;;;;5017346;28;20079;-69
2022/10/06 07:27:49;;;;;;;9.57;2.40;;;11.70;99.90;;;;;;5038095;28;20416;-69
2022/10/06 07:30:20;;;;;;;9.73;1.85;;;11.70;99.90;;;;;;5019706;28;20124;-66
2022/10/06 07:32:49;;;;;;;14.88;3.50;;;11.80;99.90;;;;;;5046464;28;20129;-66
2022/10/06 07:35:16;;;;;;;8.77;2.85;;;11.90;99.90;;;;;;5042563;28;20053;-66
2022/10/06 07:37:42;;;;;;;13.15;2.20;;;12.00;99.90;;;;;;5009531;28;20571;-66
2022/10/06 07:40:09;;;;;;;13.85;2.40;;;12.00;99.90;;;;;;5029864;28;20110;-66
2022/10/06 07:42:48;;;;;;;13.82;2.60;;;12.20;99.90;;;;;;5036146;28;20075;-66
2022/10/06 07:45:40;;;;;;;11.40;2.75;;;12.20;99.90;;;;;;5031523;28;20144;-66
2022/10/06 07:48:10;;;;;;;7.20;1.92;;;12.20;99.90;;;;;;5037275;28;20042;-66
2022/10/06 07:50:40;;;;;;;6.93;2.10;;;12.40;99.90;;;;;;5029248;28;20051;-66
2022/10/06 07:53:08;;;;;;;13.95;2.45;;;12.50;99.90;;;;;;5036287;28;20132;-66
2022/10/06 07:55:39;;;;;;;11.00;1.98;;;12.50;99.90;;;;;;5029958;28;20152;-66
2022/10/06 07:58:15;;;;;;;10.70;2.00;;;12.60;99.90;;;;;;5054584;28;20079;-66
2022/10/06 08:00:41;;;;;;;9.65;1.77;;;12.70;99.90;;;;;;5028471;28;20153;-66
2022/10/06 08:03:09;;;;;;;13.48;2.40;;;12.70;99.90;;;;;;5035726;28;20045;-66
2022/10/06 08:05:35;;;;;;;13.40;3.90;;;12.80;99.90;;;;;;5013059;28;20053;-66
2022/10/06 08:08:01;;;;;;;16.25;3.10;;;13.00;99.90;;;;;;5035420;28;20052;-66
2022/10/06 08:10:26;;;;;;;9.43;2.28;;;13.00;99.90;;;;;;5029326;28;20067;-66
2022/10/06 08:12:52;;;;;;;14.23;2.17;;;13.10;99.90;;;;;;5037394;28;20049;-66
2022/10/06 08:15:18;;;;;;;10.50;1.90;;;13.10;99.90;;;;;;5033461;28;20144;-66
2022/10/06 08:17:44;;;;;;;11.57;2.10;;;13.10;99.90;;;;;;5038744;28;20064;-66
2022/10/06 08:20:11;;;;;;;12.68;2.42;;;13.20;99.90;;;;;;5017030;28;20296;-66
2022/10/06 08:22:38;;;;;;;8.77;2.00;;;13.20;99.90;;;;;;5023078;28;20106;-66
2022/10/06 08:25:06;;;;;;;14.30;2.08;;;13.30;99.90;;;;;;5033523;28;20052;-66
2022/10/06 08:27:33;;;;;;;12.43;1.92;;;13.40;99.90;;;;;;5052878;28;20049;-67
2022/10/06 08:29:59;;;;;;;10.35;2.15;;;13.40;99.90;;;;;;5018891;28;20068;-67
2022/10/06 08:32:25;;;;;;;15.00;2.17;;;13.40;99.90;;;;;;5037306;28;20060;-67
2022/10/06 08:34:51;;;;;;;10.65;2.15;;;13.50;99.90;;;;;;5032087;28;20168;-67
2022/10/06 08:37:26;;;;;;;12.90;1.98;;;13.60;99.90;;;;;;5026496;28;20057;-68
2022/10/06 08:39:55;;;;;;;11.80;1.90;;;13.60;99.90;;;;;;5029889;28;20052;-67
2022/10/06 08:42:30;;;;;;;13.98;2.42;;;13.60;99.90;;;;;;5022317;28;20390;-67
2022/10/06 08:45:03;;;;;;;9.75;2.25;;;13.70;99.90;;;;;;5032259;28;20600;-67
2022/10/06 08:47:33;;;;;;;11.02;2.13;;;13.80;99.90;;;;;;5024956;28;20072;-67
2022/10/06 08:50:02;;;;;;;12.07;2.25;;;13.80;99.90;;;;;;5013396;28;20056;-67
2022/10/06 08:52:59;;;;;;;11.35;2.05;;;13.90;99.90;;;;;;5029525;28;20056;-67
2022/10/06 08:55:27;;;;;;;11.65;2.30;;;14.00;99.90;;;;;;5042826;28;20061;-67
2022/10/06 08:58:17;;;;;;;13.52;2.22;;;14.10;99.90;;;;;;5031626;28;20041;-67
2022/10/06 09:00:43;;;;;;;10.07;2.42;;;14.10;99.90;;;;;;5015888;28;20045;-66
2022/10/06 09:03:22;;;;;;;8.98;2.30;;;14.10;99.90;;;;;;5038959;28;20607;-67
2022/10/06 09:05:51;;;;;;;10.40;1.98;;;14.10;99.90;;;;;;5020335;28;20058;-67
2022/10/06 09:08:17;;;;;;;10.00;1.83;;;14.20;99.90;;;;;;5027324;28;20111;-67
2022/10/06 09:11:19;;;;;;;12.15;1.98;;;14.30;99.90;;;;;;5003754;28;20284;-67
2022/10/06 09:13:54;;;;;;;12.60;1.77;;;14.40;99.90;;;;;;5039325;28;20105;-67
2022/10/06 09:16:30;;;;;;;13.77;2.90;;;14.40;99.90;;;;;;5008752;28;20050;-67
2022/10/06 09:19:03;;;;;;;10.15;2.17;;;14.40;99.90;;;;;;5024628;28;20057;-67
2022/10/06 09:21:47;;;;;;;10.68;2.17;;;14.40;99.90;;;;;;5022355;28;20069;-67
2022/10/06 09:24:40;;;;;;;9.80;2.22;;;14.50;99.90;;;;;;5024182;28;20041;-67
2022/10/06 09:27:18;;;;;;;9.70;2.50;;;14.50;99.90;;;;;;5033802;28;20046;-67
2022/10/06 09:29:47;;;;;;;9.15;2.50;;;14.50;99.90;;;;;;5028835;28;20041;-67
2022/10/06 09:32:14;;;;;;;12.37;2.43;;;14.50;99.90;;;;;;5032785;28;20057;-69
2022/10/06 09:34:45;;;;;;;13.60;3.13;;;14.60;99.90;;;;;;5010308;28;20037;-67
2022/10/06 09:37:12;;;;;;;14.50;2.45;;;14.50;99.90;;;;;;5026566;28;20131;-68
2022/10/06 09:39:43;;;;;;;16.05;3.33;;;14.60;99.90;;;;;;5025672;28;20053;-67
2022/10/06 09:42:09;;;;;;;11.43;2.60;;;14.60;99.90;;;;;;5038434;28;20046;-67
2022/10/06 09:44:51;;;;;;;9.68;2.20;;;14.70;99.90;;;;;;5031156;28;20045;-67
2022/10/06 09:47:33;;;;;;;9.32;2.15;;;14.80;99.90;;;;;;5018758;28;20053;-67
2022/10/06 09:50:10;;;;;;;15.10;2.63;;;14.80;99.90;;;;;;5036315;28;20076;-66
2022/10/06 09:52:59;;;;;;;12.00;2.42;;;14.90;99.90;;;;;;5017927;28;20064;-66
2022/10/06 09:55:27;;;;;;;9.23;1.80;;;14.80;99.90;;;;;;5031466;28;20191;-66
2022/10/06 09:57:56;;;;;;;11.55;2.40;;;14.90;99.90;;;;;;5037219;28;20136;-66
2022/10/06 10:00:30;;;;;;;17.50;3.15;;;14.90;99.90;;;;;;5032565;28;20060;-66
2022/10/06 10:02:59;;;;;;;10.60;2.33;;;14.80;99.90;;;;;;5038432;28;20328;-66
2022/10/06 10:05:28;;;;;;;10.18;1.88;;;14.80;99.90;;;;;;5031703;28;20053;-66
2022/10/06 10:08:26;;;;;;;8.05;1.90;;;14.80;99.90;;;;;;5036047;28;20049;-67
2022/10/06 10:11:06;;;;;;;12.15;2.53;;;14.70;99.90;;;;;;5005380;28;20064;-67
2022/10/06 10:13:41;;;;;;;12.00;2.45;;;15.00;99.90;;;;;;5051841;28;20107;-67
2022/10/06 10:16:17;;;;;;;8.73;1.80;;;15.00;99.90;;;;;;5032329;28;20414;-67
2022/10/06 10:18:49;;;;;;;10.25;1.63;;;14.90;99.90;;;;;;5032099;28;20060;-66
2022/10/06 10:21:32;;;;;;;10.45;1.90;;;14.80;99.90;;;;;;5014484;28;20095;-66
2022/10/06 10:24:00;;;;;;;7.63;1.67;;;14.90;99.90;;;;;;5018461;28;20060;-66
2022/10/06 10:26:53;;;;;;;9.32;1.50;;;15.00;99.90;;;;;;5028205;28;20068;-66
2022/10/06 10:29:29;;;;;;;8.38;1.67;;;15.10;99.90;;;;;;5028904;28;20033;-66
2022/10/06 10:32:14;;;;;;;15.57;2.22;;;15.10;99.90;;;;;;5036426;28;20049;-66
2022/10/06 10:35:00;;;;;;;11.73;2.22;;;15.10;99.90;;;;;;5029524;28;20148;-66
2022/10/06 10:37:29;;;;;;;12.13;2.35;;;15.20;99.90;;;;;;5022292;28;20062;-66
2022/10/06 10:39:58;;;;;;;14.30;1.88;;;15.40;99.90;;;;;;5021479;28;20049;-66
2022/10/06 10:42:34;;;;;;;12.80;1.88;;;15.30;99.90;;;;;;5020462;28;20443;-67
2022/10/06 10:45:03;;;;;;;7.72;1.85;;;15.20;99.90;;;;;;5012533;28;20084;-66
2022/10/06 10:47:30;;;;;;;5.82;1.45;;;15.30;99.90;;;;;;5018215;28;20043;-66
2022/10/06 10:50:17;;;;;;;8.85;1.60;;;15.50;99.90;;;;;;5010893;28;20042;-66
2022/10/06 10:52:48;;;;;;;9.05;1.50;;;15.80;99.90;;;;;;5028296;28;20509;-66
2022/10/06 10:55:38;;;;;;;8.38;1.98;;;15.70;99.90;;;;;;5030464;28;20375;-66
2022/10/06 10:58:32;;;;;;;7.50;1.40;;;15.50;99.90;;;;;;5042082;28;20569;-66
2022/10/06 11:01:16;;;;;;;6.07;1.60;;;15.40;99.90;;;;;;5030582;28;20107;-66
2022/10/06 11:03:42;;;;;;;6.93;1.58;;;15.30;99.90;;;;;;5037700;28;20088;-66
2022/10/06 11:06:18;;;;;;;10.27;2.20;;;15.30;99.90;;;;;;5014001;28;20049;-66
2022/10/06 11:08:56;;;;;;;7.70;1.80;;;15.20;99.90;;;;;;5053111;28;20068;-66
2022/10/06 11:11:54;;;;;;;9.30;1.65;;;15.40;99.90;;;;;;5028990;28;20560;-66
2022/10/06 11:14:41;;;;;;;9.40;1.58;;;15.40;99.90;;;;;;5010461;28;20147;-66
2022/10/06 11:17:42;;;;;;;6.80;1.52;;;15.40;99.90;;;;;;5036038;28;20537;-65
2022/10/06 11:20:33;;;;;;;6.90;2.03;;;15.50;99.90;;;;;;5033997;28;20044;-66
2022/10/06 11:23:20;;;;;;;7.47;1.50;;;15.70;99.90;;;;;;5024196;28;20111;-66
2022/10/06 11:25:45;;;;;;;8.82;1.90;;;15.80;99.90;;;;;;5030800;28;20045;-66
2022/10/06 11:28:21;;;;;;;7.93;1.65;;;15.70;99.90;;;;;;5045850;28;20115;-67
2022/10/06 11:30:57;;;;;;;6.55;1.77;;;15.80;99.90;;;;;;5030192;28;20291;-66
2022/10/06 11:34:02;;;;;;;8.13;1.30;;;16.00;99.90;;;;;;5035349;28;20109;-66
2022/10/06 11:36:36;;;;;;;5.22;1.20;;;16.10;99.90;;;;;;5028154;28;20079;-66
2022/10/06 11:39:19;;;;;;;7.78;1.33;;;16.20;99.90;;;;;;5017656;28;20052;-66
2022/10/06 11:41:51;;;;;;;5.65;1.15;;;16.30;99.90;;;;;;5010568;28;20054;-66
2022/10/06 11:44:47;;;;;;;7.75;1.75;;;16.50;99.90;;;;;;5019920;28;20045;-66
2022/10/06 11:47:30;;;;;;;6.72;2.50;;;16.40;99.90;;;;;;5010922;28;20065;-66
2022/10/06 11:49:55;;;;;;;9.18;1.50;;;16.60;99.90;;;;;;5033314;28;20144;-66
2022/10/06 11:52:21;;;;;;;5.70;1.17;;;16.60;99.90;;;;;;5040474;28;20084;-67
2022/10/06 11:54:55;;;;;;;9.95;1.90;;;16.60;99.90;;;;;;5033660;28;20115;-66
2022/10/06 11:57:21;;;;;;;7.97;1.63;;;16.70;99.90;;;;;;5040989;28;20060;-66
2022/10/06 12:00:06;;;;;;;8.60;1.45;;;16.80;99.90;;;;;;5034871;28;20061;-63
2022/10/06 12:02:35;;;;;;;7.75;1.48;;;17.00;99.90;;;;;;5036114;28;20326;-65
2022/10/06 12:05:13;;;;;;;5.73;1.27;;;17.00;99.90;;;;;;5036813;28;20061;-66
2022/10/06 12:07:56;;;;;;;3.63;1.00;;;16.90;99.90;;;;;;5038042;28;20077;-66
2022/10/06 12:10:28;;;;;;;7.70;1.58;;;17.00;99.90;;;;;;5032854;28;20071;-67
2022/10/06 12:13:29;;;;;;;5.78;1.08;;;17.10;99.90;;;;;;5039685;28;20064;-67
2022/10/06 12:16:14;;;;;;;5.60;1.10;;;17.20;99.90;;;;;;5042618;28;20052;-67
2022/10/06 12:19:10;;;;;;;4.15;1.10;;;17.30;99.90;;;;;;5045624;28;20064;-67
2022/10/06 12:21:43;;;;;;;5.43;1.20;;;17.20;99.90;;;;;;5032278;28;20056;-67
2022/10/06 12:24:15;;;;;;;8.30;1.45;;;17.50;99.90;;;;;;5040022;28;20055;-67
2022/10/06 12:27:05;;;;;;;6.60;1.50;;;17.70;99.90;;;;;;5035883;28;20049;-67
2022/10/06 12:29:42;;;;;;;5.07;1.52;;;17.80;99.90;;;;;;5040600;28;20045;-67
2022/10/06 12:32:26;;;;;;;7.53;1.50;;;18.20;99.90;;;;;;5004473;28;20042;-67
2022/10/06 12:35:11;;;;;;;5.57;1.23;;;18.20;99.90;;;;;;5035392;28;20046;-67
2022/10/06 12:37:48;;;;;;;4.50;1.10;;;18.40;99.90;;;;;;5036519;28;20131;-68
2022/10/06 12:40:48;;;;;;;5.45;1.20;;;18.80;99.90;;;;;;5035665;28;20080;-67
2022/10/06 12:43:16;;;;;;;3.97;1.38;;;19.20;99.90;;;;;;5022614;28;20041;-66
2022/10/06 12:46:06;;;;;;;7.68;1.17;;;19.30;99.90;;;;;;5032734;28;20045;-67
2022/10/06 12:48:48;;;;;;;6.38;1.08;;;19.30;99.90;;;;;;5039015;28;20053;-67
2022/10/06 12:51:22;;;;;;;5.18;1.10;;;19.20;99.90;;;;;;5034960;28;20136;-67
2022/10/06 12:54:12;;;;;;;3.70;0.85;;;19.70;99.90;;;;;;5036754;28;20120;-67
2022/10/06 12:56:41;;;;;;;5.80;0.90;;;19.40;99.90;;;;;;5038694;28;20071;-67
2022/10/06 12:59:23;;;;;;;6.15;1.23;;;19.90;99.90;;;;;;5054452;28;20055;-66
2022/10/06 13:01:54;;;;;;;4.13;0.90;;;19.90;99.90;;;;;;5028265;28;20346;-67
2022/10/06 13:04:43;;;;;;;5.78;1.08;;;19.90;99.90;;;;;;5040552;28;20064;-66
2022/10/06 13:07:22;;;;;;;3.92;1.00;;;19.80;99.90;;;;;;5012878;28;20053;-67
2022/10/06 13:09:51;;;;;;;4.55;0.98;;;20.00;99.90;;;;;;5029727;28;20057;-67
2022/10/06 13:12:25;;;;;;;8.77;1.93;;;20.30;99.90;;;;;;5038967;28;20049;-67
2022/10/06 13:15:09;;;;;;;3.90;1.05;;;20.30;99.70;;;;;;5031454;28;20041;-67
2022/10/06 13:17:42;;;;;;;6.43;1.05;;;20.60;99.30;;;;;;5051603;28;20064;-67